SANT MARTÍ SACALM





Hora UTC 20:35
Temperatura 14.9 ºC
Humitat 91.1 %
Pressió 1026.9 hPa
Pluja 0.0 mm
Velocitat vent 5.9 km/h
Direcció vent NE
Radiació solar 0.1 W/m²

Dades diàries 2022-10-05



Hora UTC (hivern +1h; estiu +2h)
Temperatura (ºC) Humitat (%) Pressió (hPa) Velocitat vent (km/h) Precipitació (mm) Radiació solar (W/m²)
Hora UTC Aire Humitat Pressió Vel. Dir. Vel. Max Dir. Intent. màx 5 min. Rad. Sol.
00:05 14.9 88.6 1024.3 8.4 SW 8.4 SW 0.0 0.1
00:10 14.8 88.7 1024.3 7.6 SW 8.5 SSW 0.0 0.1
00:15 14.8 88.6 1024.3 7.0 SW 7.8 SSW 0.0 0.1
00:20 14.9 88.3 1024.3 7.4 SSW 8.1 SSW 0.0 0.1
00:25 15.1 87.7 1024.2 7.8 SW 8.5 SW 0.0 0.1
00:30 15.1 87.1 1024.2 8.4 SW 9.2 SW 0.0 0.1
00:35 15.0 87.4 1024.2 7.3 SW 8.5 SW 0.0 0.1
00:40 14.9 88.1 1024.3 7.0 SW 8.1 SSW 0.0 0.1
00:45 14.9 88.3 1024.3 6.7 SW 7.8 SW 0.0 0.1
00:50 15.0 88.0 1024.3 6.5 SW 7.8 SW 0.0 0.1
00:55 15.2 87.0 1024.3 6.6 SW 7.8 SW 0.0 0.1
01:00 15.3 86.6 1024.3 6.5 SW 7.4 SW 0.0 0.1
01:05 15.2 87.0 1024.2 6.0 SW 6.7 SW 0.0 0.1
01:10 15.2 86.9 1024.2 6.8 SSW 8.1 SSW 0.0 0.1
01:15 15.1 87.1 1024.2 7.8 SW 9.5 SW 0.0 0.1
01:20 14.9 87.8 1024.2 8.1 SW 9.2 SW 0.0 0.1
01:25 14.5 89.4 1024.1 9.0 SW 9.9 SW 0.0 0.1
01:30 14.2 90.7 1024.1 9.0 SW 9.9 SSW 0.0 0.1
01:35 14.1 91.1 1024.1 8.5 SW 10.3 SW 0.0 0.1
01:40 14.2 90.9 1024.0 7.5 SSW 9.5 SSW 0.0 0.1
01:45 14.2 90.7 1024.0 7.7 SSW 9.5 SSW 0.0 0.1
01:50 14.3 90.6 1024.0 8.2 SSW 9.9 SW 0.0 0.1
01:55 14.3 90.6 1024.0 8.1 SW 9.5 SSW 0.0 0.1
02:00 14.5 90.0 1024.0 7.9 SW 9.9 SW 0.0 0.1
02:05 14.6 89.7 1024.0 7.3 SW 8.5 SW 0.0 0.1
02:10 14.6 89.4 1023.9 6.8 SW 8.1 SW 0.0 0.1
02:15 14.6 89.7 1023.9 7.8 SSW 8.8 SSW 0.0 0.1
02:20 14.8 88.8 1023.9 7.4 SW 8.5 SSW 0.0 0.1
02:25 14.7 88.6 1023.9 7.7 SW 9.2 SW 0.0 0.1
02:30 14.7 88.6 1023.8 6.3 SW 8.1 SW 0.0 0.1
02:35 14.5 89.5 1023.8 5.4 SW 7.8 SW 0.0 0.1
02:40 14.4 90.2 1023.9 4.3 SSW 5.3 SW 0.0 0.1
02:45 14.5 89.9 1023.9 5.3 SSW 7.1 SSW 0.0 0.1
02:50 14.4 89.8 1023.9 6.1 SSW 7.8 SSW 0.0 0.1
02:55 14.4 89.8 1023.8 5.6 SW 7.4 SW 0.0 0.1
03:00 14.3 89.9 1023.8 5.6 SSW 7.8 SW 0.0 0.1
03:05 14.3 90.5 1023.8 6.5 SSW 8.1 SW 0.0 0.1
03:10 14.3 90.5 1023.8 6.1 SW 7.8 SW 0.0 0.1
03:15 14.5 90.0 1023.8 6.3 SW 7.8 SW 0.0 0.1
03:20 14.7 88.8 1023.8 7.0 SW 8.5 SW 0.0 0.1
03:25 14.9 87.5 1023.8 5.4 SW 6.7 SW 0.0 0.1
03:30 15.2 85.7 1023.8 5.5 SW 7.4 SW 0.0 0.1
03:35 15.3 85.2 1023.8 6.5 SW 8.1 SSW 0.0 0.1
03:40 15.0 86.9 1023.7 6.2 SW 7.1 SW 0.0 0.1
03:45 14.9 87.8 1023.7 5.9 SW 6.4 SW 0.0 0.1
03:50 14.8 88.2 1023.7 6.1 SW 7.1 SW 0.0 0.1
03:55 14.7 88.6 1023.7 6.3 SSW 7.8 SSW 0.0 0.1
04:00 14.6 88.9 1023.7 6.7 SSW 8.8 SSW 0.0 0.1
04:05 14.5 89.1 1023.7 7.2 SSW 8.5 SW 0.0 0.1
04:10 14.4 89.3 1023.6 8.1 SSW 11.0 SW 0.0 0.1
04:15 14.4 89.2 1023.6 9.0 SW 10.6 SW 0.0 0.1
04:20 14.2 89.8 1023.6 8.6 SSW 10.3 SW 0.0 0.1
04:25 14.1 90.3 1023.6 8.8 SW 10.6 SW 0.0 0.1
04:30 14.0 90.8 1023.7 7.9 SW 9.2 SW 0.0 0.1
04:35 14.0 91.1 1023.7 8.2 SSW 9.2 SW 0.0 0.1
04:40 14.1 90.7 1023.7 7.9 SSW 9.2 SSW 0.0 0.1
04:45 14.1 90.4 1023.7 7.8 SSW 9.2 SSW 0.0 0.1
04:50 13.8 90.9 1023.7 7.8 SSW 8.8 SSW 0.0 0.1
04:55 13.6 92.2 1023.7 7.5 SSW 8.5 SSW 0.0 0.1
05:00 13.4 93.0 1023.7 6.9 SSW 8.1 SSW 0.0 0.1
05:05 13.4 93.5 1023.7 6.7 SSW 7.8 SSW 0.0 0.1
05:10 13.5 93.1 1023.7 7.0 SSW 9.2 S 0.0 0.1
05:15 13.6 92.4 1023.8 7.8 S 9.5 SSW 0.0 0.1
05:20 13.7 91.6 1023.7 8.2 SSW 9.9 SW 0.0 0.1
05:25 13.7 90.9 1023.7 7.6 SSW 9.9 SSW 0.0 0.1
05:30 13.6 90.9 1023.7 6.5 SSW 8.8 SSW 0.0 0.1
05:35 13.8 90.3 1023.7 10.2 SSW 12.7 SSW 0.0 0.2
05:40 13.7 88.4 1023.7 10.2 SSW 13.1 SSW 0.0 0.6
05:45 13.7 89.2 1023.8 10.1 SW 13.1 SW 0.0 1.3
05:50 13.8 88.2 1023.8 10.4 SW 13.1 SW 0.0 2.4
05:55 13.7 88.8 1023.8 9.6 SSW 12.7 SSW 0.0 4.3
06:00 13.7 88.7 1023.9 9.4 SW 13.1 SW 0.0 7.1
06:05 13.7 88.8 1023.9 8.4 SW 10.3 SW 0.0 10.2
06:10 13.6 88.6 1023.9 7.0 SSW 8.8 SSW 0.0 22.8
06:15 13.6 89.0 1024.0 6.6 SSW 8.5 SSW 0.0 40.5
06:20 13.7 88.4 1024.1 7.3 SSW 9.2 SSW 0.0 52.4
06:25 13.8 87.3 1024.1 7.4 SW 9.9 SW 0.0 65.5
06:30 14.1 86.2 1024.1 8.1 SW 9.9 SW 0.0 79.6
06:35 14.0 85.9 1024.1 9.1 SW 10.3 SW 0.0 93.3
06:40 14.0 86.2 1024.1 8.1 SW 9.5 SW 0.0 106.2
06:45 14.1 85.8 1024.1 7.3 SW 8.8 SW 0.0 120.4
06:50 14.2 85.8 1024.2 7.3 SSW 9.9 S 0.0 135.5
06:55 14.0 86.6 1024.2 9.1 SSW 11.3 SSW 0.0 149.1
07:00 13.9 87.3 1024.2 9.0 SSW 10.6 SSW 0.0 163.1
07:05 13.9 87.5 1024.3 7.2 SSW 9.2 SSW 0.0 178.2
07:10 14.4 85.5 1024.3 7.0 SSW 10.6 SSW 0.0 195.1
07:15 14.7 84.3 1024.3 6.9 SSW 9.2 SW 0.0 208.9
07:20 15.2 82.5 1024.4 7.5 SSW 9.5 SSW 0.0 225.8
07:25 15.4 81.2 1024.4 8.1 SW 9.9 SW 0.0 244.0
07:30 15.5 80.5 1024.4 8.1 SW 9.9 SW 0.0 258.8
07:35 15.6 80.7 1024.5 7.0 SSW 9.5 SSW 0.0 274.8
07:40 15.8 80.0 1024.6 7.0 SSW 8.8 SSW 0.0 291.7
07:45 16.0 79.4 1024.7 8.2 SSW 9.9 SW 0.0 306.9
07:50 15.9 79.4 1024.7 8.6 SW 10.3 SW 0.0 321.8
07:55 16.0 79.9 1024.8 6.9 SW 9.2 SW 0.0 337.0
08:00 16.2 78.3 1024.8 5.9 SW 8.1 SW 0.0 352.3
08:05 16.4 77.5 1024.8 7.2 SW 9.5 SW 0.0 368.0
08:10 16.5 76.4 1024.9 9.3 SW 11.3 SW 0.0 382.3
08:15 16.5 79.8 1025.0 4.9 SW 9.2 SW 0.0 394.7
08:20 16.4 81.4 1025.0 5.6 SSW 9.2 SW 0.0 408.9
08:25 16.5 80.9 1025.0 5.8 SSW 8.5 SSW 0.0 424.3
08:30 16.6 77.0 1025.0 8.4 SW 10.3 SW 0.0 439.0
08:35 16.7 76.3 1025.1 7.0 SW 9.5 SW 0.0 452.6
08:40 16.9 74.8 1025.1 7.8 SW 9.9 SW 0.0 464.8
08:45 17.0 74.2 1025.2 7.5 SW 9.9 SW 0.0 477.2
08:50 16.9 73.1 1025.2 8.8 SW 11.3 SW 0.0 491.5
08:55 17.0 72.7 1025.2 8.8 SW 11.0 SW 0.0 504.1
09:00 17.1 72.2 1025.3 8.9 SW 10.6 SW 0.0 514.2
09:05 17.1 74.5 1025.3 7.5 SW 9.2 SW 0.0 526.5
09:10 17.3 73.2 1025.3 5.3 SW 7.8 SW 0.0 539.5
09:15 17.5 70.9 1025.3 5.7 SW 8.1 WSW 0.0 508.3
09:20 17.7 71.4 1025.3 6.9 WSW 9.5 WSW 0.0 520.8
09:25 17.8 71.1 1025.4 6.4 SW 8.8 SW 0.0 572.6
09:30 17.9 72.7 1025.4 5.4 SW 7.4 SW 0.0 583.1
09:35 18.1 72.8 1025.4 6.9 WSW 10.6 SW 0.0 592.3
09:40 18.2 72.4 1025.4 6.9 SW 10.6 WSW 0.0 600.6
09:45 18.5 72.0 1025.4 6.9 SW 10.6 WSW 0.0 609.9
09:50 18.3 72.4 1025.5 7.0 SW 10.3 WSW 0.0 617.6
09:55 18.3 72.8 1025.4 7.3 SW 10.6 SW 0.0 628.4
10:00 18.5 72.6 1025.4 6.9 SW 9.9 WSW 0.0 636.1
10:05 18.8 68.5 1025.4 6.4 SSW 11.0 SSW 0.0 644.6
10:10 18.8 64.4 1025.4 9.2 SW 15.2 SW 0.0 648.8
10:15 18.9 62.3 1025.4 7.7 SW 11.3 SW 0.0 656.0
10:20 19.1 63.0 1025.4 6.6 SW 11.7 WSW 0.0 662.5
10:25 19.6 66.5 1025.4 5.0 SSW 10.3 SSW 0.0 669.3
10:30 19.6 68.8 1025.4 4.6 SSW 8.8 S 0.0 674.9
10:35 19.9 68.7 1025.4 3.6 SW 7.8 SW 0.0 680.8
10:40 19.6 71.6 1025.4 3.7 E 8.1 ESE 0.0 686.3
10:45 20.3 65.7 1025.4 6.1 ESE 9.5 ESE 0.0 691.4
10:50 20.7 67.5 1025.4 2.1 NNE 6.0 NNW 0.0 696.7
10:55 19.8 72.7 1025.4 2.8 NNE 7.1 NNE 0.0 701.3
11:00 19.8 73.1 1025.4 2.0 ENE 5.7 ENE 0.0 706.8
11:05 20.1 71.3 1025.4 4.4 NE 7.4 NE 0.0 713.0
11:10 20.3 69.4 1025.3 4.2 E 9.5 E 0.0 712.9
11:15 21.0 62.1 1025.3 7.2 SSE 17.0 S 0.0 713.9
11:20 20.5 64.6 1025.2 12.0 SSE 17.3 SSE 0.0 646.9
11:25 20.3 64.1 1025.2 9.5 SSE 16.2 SE 0.0 678.1
11:30 20.2 67.8 1025.2 11.4 SSE 18.0 SE 0.0 685.4
11:35 20.1 66.7 1025.2 11.3 SSE 19.8 S 0.0 530.6
11:40 20.0 69.5 1025.2 9.5 SSE 17.7 SSE 0.0 383.8
11:45 19.7 69.9 1025.2 13.1 SSE 22.2 SSE 0.0 267.2
11:50 19.5 70.9 1025.2 14.1 SSE 24.0 SE 0.0 537.3
11:55 19.8 70.4 1025.2 8.5 SSE 15.5 SSE 0.0 714.3
12:00 20.1 70.1 1025.1 6.6 SSE 18.0 SSE 0.0 702.2
12:05 20.3 68.7 1025.1 7.5 S 14.5 SW 0.0 712.8
12:10 20.3 68.3 1025.0 7.3 S 20.1 SE 0.0 708.9
12:15 20.4 66.9 1025.0 9.1 S 23.3 SE 0.0 705.8
12:20 20.6 66.3 1025.0 8.1 SE 19.1 E 0.0 700.8
12:25 20.9 64.1 1025.0 6.5 SSE 13.1 SE 0.0 697.0
12:30 20.6 63.6 1024.9 8.9 SE 24.4 SSE 0.0 692.8
12:35 20.8 64.3 1024.9 8.6 SE 16.2 SE 0.0 685.2
12:40 20.6 62.5 1024.9 12.7 SSE 28.6 SE 0.0 684.4
12:45 20.3 63.3 1024.9 8.6 SE 20.1 SE 0.0 679.6
12:50 20.7 62.5 1024.8 10.8 ESE 23.7 SSE 0.0 671.4
12:55 20.4 62.4 1024.8 14.4 SSE 22.6 SSE 0.0 662.8
13:00 20.6 63.4 1024.8 10.1 ESE 18.4 E 0.0 657.0
13:05 20.8 61.4 1024.8 9.5 SE 23.7 E 0.0 650.4
13:10 21.1 60.9 1024.8 5.7 SE 11.7 SSE 0.0 643.1
13:15 21.2 59.1 1024.7 11.1 SSE 21.2 SE 0.0 635.3
13:20 21.0 60.0 1024.7 8.0 SSE 20.1 ESE 0.0 630.8
13:25 20.7 61.9 1024.7 12.4 ESE 20.5 E 0.0 621.0
13:30 20.9 62.0 1024.7 9.0 SSE 23.7 SSE 0.0 614.3
13:35 20.4 62.9 1024.6 11.4 SE 20.1 SE 0.0 610.3
13:40 20.3 65.0 1024.6 10.2 SE 20.5 SSE 0.0 603.8
13:45 20.7 64.2 1024.6 7.1 ESE 17.7 ESE 0.0 600.5
13:50 21.2 64.5 1024.6 4.8 SE 13.1 ESE 0.0 613.8
13:55 21.9 62.1 1024.7 3.6 E 9.9 ENE 0.0 626.6
14:00 21.5 62.3 1024.7 4.4 SW 13.4 NW 0.0 635.2
14:05 21.3 64.3 1024.7 4.9 ESE 12.0 E 0.0 598.3
14:10 21.6 62.9 1024.7 4.6 SSE 12.0 SSE 0.0 586.9
14:15 21.6 64.1 1024.7 5.0 ESE 16.6 SE 0.0 567.8
14:20 21.4 64.2 1024.7 9.5 SE 18.4 SSE 0.0 552.3
14:25 20.9 64.8 1024.7 8.8 SE 18.7 ESE 0.0 548.7
14:30 21.2 63.4 1024.7 5.3 SE 11.7 SSE 0.0 448.9
14:35 21.4 61.4 1024.6 8.2 ESE 21.5 E 0.0 516.3
14:40 21.3 60.8 1024.6 11.3 E 21.5 ENE 0.0 490.1
14:45 20.9 61.9 1024.6 13.3 E 22.6 ESE 0.0 455.6
14:50 21.1 62.6 1024.6 8.6 E 19.8 ENE 0.0 442.9
14:55 21.1 63.4 1024.6 11.4 E 25.4 E 0.0 429.9
15:00 20.9 63.6 1024.6 6.3 SE 16.2 SSE 0.0 413.7
15:05 20.5 65.1 1024.6 5.2 SSE 14.1 S 0.0 391.1
15:10 20.4 64.5 1024.6 6.7 SSE 14.1 SSE 0.0 378.3
15:15 20.3 64.3 1024.6 8.6 SSE 18.7 SSE 0.0 352.6
15:20 19.9 63.9 1024.6 9.9 SSE 20.5 SSE 0.0 346.8
15:25 20.1 62.3 1024.6 9.2 SSE 19.8 SE 0.0 339.1
15:30 19.5 62.0 1024.6 10.5 SE 17.7 SE 0.0 318.8
15:35 19.2 65.7 1024.7 12.5 SSE 22.6 SSE 0.0 308.9
15:40 18.8 69.2 1024.7 13.8 SE 22.2 ESE 0.0 290.8
15:45 18.4 70.9 1024.7 16.8 SE 26.1 SE 0.0 267.8
15:50 18.3 70.9 1024.7 12.4 SE 23.7 ESE 0.0 122.2
15:55 18.1 71.8 1024.7 13.4 SSE 21.2 SE 0.0 183.0
16:00 17.9 72.9 1024.8 12.8 SSE 21.9 SSE 0.0 82.0
16:05 17.7 73.1 1024.8 13.3 SE 22.6 SE 0.0 122.1
16:10 17.7 73.3 1024.9 12.0 SSE 21.5 SSE 0.0 123.6
16:15 17.7 73.2 1024.9 10.6 SSE 20.5 SE 0.0 104.4
16:20 17.5 74.9 1025.0 12.2 SSE 20.8 SE 0.0 102.6
16:25 17.6 75.2 1025.0 6.5 SE 12.7 SSE 0.0 145.5
16:30 17.9 75.0 1025.0 7.7 E 16.2 ESE 0.0 160.9
16:35 18.4 73.7 1025.1 6.8 E 11.0 E 0.0 142.1
16:40 18.4 73.6 1025.1 7.3 ESE 14.5 SE 0.0 136.0
16:45 18.3 74.4 1025.1 6.7 E 12.0 E 0.0 121.3
16:50 18.3 74.3 1025.2 7.3 ESE 11.0 ESE 0.0 72.2
16:55 17.9 75.6 1025.2 4.2 ESE 7.8 SSE 0.0 38.9
17:00 17.6 77.5 1025.2 2.7 SE 8.8 SE 0.0 32.3
17:05 17.1 80.3 1025.2 5.1 SE 8.1 ESE 0.0 25.5
17:10 16.8 82.1 1025.2 2.6 E 6.4 ENE 0.0 18.3
17:15 16.6 82.8 1025.3 3.0 E 4.6 ESE 0.0 14.5
17:20 16.4 83.5 1025.3 5.6 NE 8.1 NNE 0.0 11.1
17:25 16.0 84.1 1025.3 5.3 NE 7.8 NNE 0.0 7.2
17:30 15.8 85.2 1025.4 4.0 NE 7.1 NNE 0.0 4.9
17:35 15.7 85.8 1025.5 3.7 E 5.3 ESE 0.0 3.3
17:40 15.5 86.9 1025.5 4.2 E 5.3 ESE 0.0 1.9
17:45 15.5 87.4 1025.5 5.5 E 7.4 E 0.0 0.9
17:50 15.5 86.9 1025.6 6.0 ESE 8.1 ESE 0.0 0.4
17:55 15.6 81.3 1025.7 5.4 ESE 8.1 ESE 0.0 0.2
18:00 15.9 77.1 1025.7 3.7 ESE 5.3 E 0.0 0.1
18:05 16.0 76.6 1025.7 4.7 SE 7.8 SE 0.0 0.1
18:10 16.1 75.4 1025.7 5.2 SE 6.4 SE 0.0 0.1
18:15 16.1 74.1 1025.8 5.5 ESE 7.1 ESE 0.0 0.1
18:20 16.0 73.4 1025.8 5.6 ENE 7.4 ENE 0.0 0.1
18:25 16.0 76.4 1025.9 3.9 ENE 7.1 NE 0.0 0.1
18:30 15.8 77.6 1025.9 2.4 ENE 3.9 ENE 0.0 0.1
18:35 15.9 79.4 1025.9 4.0 ENE 5.7 ENE 0.0 0.1
18:40 15.9 79.3 1026.0 4.6 ENE 6.4 NE 0.0 0.1
18:45 15.9 79.7 1026.1 5.0 ENE 6.7 ENE 0.0 0.1
18:50 15.8 83.2 1026.1 5.7 NE 7.4 NE 0.0 0.1
18:55 15.7 84.4 1026.2 5.0 NE 7.1 NE 0.0 0.1
19:00 15.6 85.5 1026.2 6.5 NNE 7.8 NNE 0.0 0.1
19:05 15.4 85.8 1026.3 5.8 NE 7.1 NE 0.0 0.1
19:10 15.4 86.9 1026.3 6.3 NE 7.8 NE 0.0 0.1
19:15 15.3 87.7 1026.3 6.1 NNE 8.8 N 0.0 0.1
19:20 15.2 88.9 1026.4 5.1 NNE 7.1 NNE 0.0 0.1
19:25 15.1 90.6 1026.4 4.7 NE 7.8 NNE 0.0 0.1
19:30 15.1 91.2 1026.5 5.3 ENE 7.8 ENE 0.0 0.1
19:35 15.1 90.9 1026.5 6.2 NE 10.6 NE 0.0 0.1
19:40 15.2 91.1 1026.5 6.3 NNE 9.5 NE 0.0 0.1
19:45 15.1 91.4 1026.6 6.8 NNE 9.9 NNE 0.0 0.1
19:50 15.1 91.5 1026.6 5.5 NE 8.8 NNE 0.0 0.1
19:55 15.1 91.4 1026.7 4.2 NE 7.4 NNE 0.0 0.1
20:00 15.0 91.4 1026.7 3.3 NE 5.0 NE 0.0 0.1
20:05 15.0 91.3 1026.7 2.8 ENE 4.6 ENE 0.0 0.1
20:10 15.0 91.3 1026.7 5.4 NNE 7.4 NNE 0.0 0.1
20:15 15.1 89.4 1026.7 4.3 NE 6.7 N 0.0 0.1
20:20 15.1 90.0 1026.8 2.9 NNE 6.7 NNE 0.0 0.1
20:25 14.9 90.6 1026.8 3.6 ENE 6.0 NNE 0.0 0.1
20:30 14.9 91.3 1026.9 6.5 NE 7.8 NE 0.0 0.1
20:35 14.9 91.1 1026.9 5.9 NE 8.1 ENE 0.0 0.1
Màxima 22.0 93.5 1026.9 16.8 SE 28.6 SE 0.0 714.3
Mínima 13.3 59.1 1023.6
Total 0.0